sensor_id;sensor_type;location;lat;lon;timestamp;temperature;humidity
12130;DHT22;6128;59.340;18.040;2022-10-15T00:01:10;11.40;99.90
12130;DHT22;6128;59.340;18.040;2022-10-15T00:03:40;11.40;99.90
12130;DHT22;6128;59.340;18.040;2022-10-15T00:06:10;11.30;99.90
12130;DHT22;6128;59.340;18.040;2022-10-15T00:08:38;11.30;99.90
12130;DHT22;6128;59.340;18.040;2022-10-15T00:11:07;11.30;99.90
12130;DHT22;6128;59.340;18.040;2022-10-15T00:13:34;11.20;99.90
12130;DHT22;6128;59.340;18.040;2022-10-15T00:16:03;11.20;99.90
12130;DHT22;6128;59.340;18.040;2022-10-15T00:18:30;11.20;99.90
12130;DHT22;6128;59.340;18.040;2022-10-15T00:20:58;11.20;99.90
12130;DHT22;6128;59.340;18.040;2022-10-15T00:23:26;11.20;99.90
12130;DHT22;6128;59.340;18.040;2022-10-15T00:26:01;11.20;99.90
12130;DHT22;6128;59.340;18.040;2022-10-15T00:28:31;11.20;99.90
12130;DHT22;6128;59.340;18.040;2022-10-15T00:31:00;11.20;99.90
12130;DHT22;6128;59.340;18.040;2022-10-15T00:33:27;11.20;99.90
12130;DHT22;6128;59.340;18.040;2022-10-15T00:36:00;11.10;99.90
12130;DHT22;6128;59.340;18.040;2022-10-15T00:38:27;11.10;99.90
12130;DHT22;6128;59.340;18.040;2022-10-15T00:40:55;11.10;99.90
12130;DHT22;6128;59.340;18.040;2022-10-15T00:43:41;11.10;99.90
12130;DHT22;6128;59.340;18.040;2022-10-15T00:46:16;11.10;99.90
12130;DHT22;6128;59.340;18.040;2022-10-15T00:48:46;11.10;99.90
12130;DHT22;6128;59.340;18.040;2022-10-15T00:51:17;11.10;99.90
12130;DHT22;6128;59.340;18.040;2022-10-15T00:53:46;11.10;99.90
12130;DHT22;6128;59.340;18.040;2022-10-15T00:56:15;11.10;99.90
12130;DHT22;6128;59.340;18.040;2022-10-15T00:58:43;11.10;99.90
12130;DHT22;6128;59.340;18.040;2022-10-15T01:01:11;11.10;99.90
12130;DHT22;6128;59.340;18.040;2022-10-15T01:03:38;11.10;99.90
12130;DHT22;6128;59.340;18.040;2022-10-15T01:06:06;11.10;99.90
12130;DHT22;6128;59.340;18.040;2022-10-15T01:08:34;11.10;99.90
12130;DHT22;6128;59.340;18.040;2022-10-15T01:11:12;11.10;99.90
12130;DHT22;6128;59.340;18.040;2022-10-15T01:13:48;11.00;99.90
12130;DHT22;6128;59.340;18.040;2022-10-15T01:16:22;11.00;99.90
12130;DHT22;6128;59.340;18.040;2022-10-15T01:18:54;11.00;99.90
12130;DHT22;6128;59.340;18.040;2022-10-15T01:21:28;11.00;99.90
12130;DHT22;6128;59.340;18.040;2022-10-15T01:27:24;11.00;99.90
12130;DHT22;6128;59.340;18.040;2022-10-15T01:33:02;10.90;99.90
12130;DHT22;6128;59.340;18.040;2022-10-15T01:35:36;10.90;99.90
12130;DHT22;6128;59.340;18.040;2022-10-15T01:38:12;10.90;99.90
12130;DHT22;6128;59.340;18.040;2022-10-15T01:40:45;10.90;99.90
12130;DHT22;6128;59.340;18.040;2022-10-15T01:43:19;10.80;99.90
12130;DHT22;6128;59.340;18.040;2022-10-15T01:45:51;10.90;99.90
12130;DHT22;6128;59.340;18.040;2022-10-15T01:48:20;10.80;99.90
12130;DHT22;6128;59.340;18.040;2022-10-15T01:50:50;10.80;99.90
12130;DHT22;6128;59.340;18.040;2022-10-15T01:53:21;10.80;99.90
12130;DHT22;6128;59.340;18.040;2022-10-15T01:55:54;10.80;99.90
12130;DHT22;6128;59.340;18.040;2022-10-15T01:58:23;10.70;99.90
12130;DHT22;6128;59.340;18.040;2022-10-15T02:00:52;10.70;99.90
12130;DHT22;6128;59.340;18.040;2022-10-15T02:03:21;10.70;99.90
12130;DHT22;6128;59.340;18.040;2022-10-15T02:05:54;10.70;99.90
12130;DHT22;6128;59.340;18.040;2022-10-15T02:08:30;10.60;99.90
12130;DHT22;6128;59.340;18.040;2022-10-15T02:11:04;10.60;99.90
12130;DHT22;6128;59.340;18.040;2022-10-15T02:13:40;10.60;99.90
12130;DHT22;6128;59.340;18.040;2022-10-15T02:16:13;10.60;99.90
12130;DHT22;6128;59.340;18.040;2022-10-15T02:18:49;10.60;99.90
12130;DHT22;6128;59.340;18.040;2022-10-15T02:21:21;10.60;99.90
12130;DHT22;6128;59.340;18.040;2022-10-15T02:23:52;10.60;99.90
12130;DHT22;6128;59.340;18.040;2022-10-15T02:26:20;10.50;99.90
12130;DHT22;6128;59.340;18.040;2022-10-15T02:28:53;10.50;99.90
12130;DHT22;6128;59.340;18.040;2022-10-15T02:31:22;10.50;99.90
12130;DHT22;6128;59.340;18.040;2022-10-15T02:33:55;10.50;99.90
12130;DHT22;6128;59.340;18.040;2022-10-15T02:36:24;10.50;99.90
12130;DHT22;6128;59.340;18.040;2022-10-15T02:38:52;10.40;99.90
12130;DHT22;6128;59.340;18.040;2022-10-15T02:41:20;10.40;99.90
12130;DHT22;6128;59.340;18.040;2022-10-15T02:43:48;10.40;99.90
12130;DHT22;6128;59.340;18.040;2022-10-15T02:46:17;10.40;99.90
12130;DHT22;6128;59.340;18.040;2022-10-15T02:48:45;10.40;99.90
12130;DHT22;6128;59.340;18.040;2022-10-15T02:51:14;10.40;99.90
12130;DHT22;6128;59.340;18.040;2022-10-15T02:53:41;10.40;99.90
12130;DHT22;6128;59.340;18.040;2022-10-15T02:56:08;10.30;99.90
12130;DHT22;6128;59.340;18.040;2022-10-15T02:58:35;10.30;99.90
12130;DHT22;6128;59.340;18.040;2022-10-15T03:01:02;10.30;99.90
12130;DHT22;6128;59.340;18.040;2022-10-15T03:03:29;10.40;99.90
12130;DHT22;6128;59.340;18.040;2022-10-15T03:05:57;10.40;99.90
12130;DHT22;6128;59.340;18.040;2022-10-15T03:08:25;10.40;99.90
12130;DHT22;6128;59.340;18.040;2022-10-15T03:10:52;10.40;99.90
12130;DHT22;6128;59.340;18.040;2022-10-15T03:13:19;10.40;99.90
12130;DHT22;6128;59.340;18.040;2022-10-15T03:15:46;10.40;99.90
12130;DHT22;6128;59.340;18.040;2022-10-15T03:18:13;10.40;99.90
12130;DHT22;6128;59.340;18.040;2022-10-15T03:20:41;10.50;99.90
12130;DHT22;6128;59.340;18.040;2022-10-15T03:23:08;10.50;99.90
12130;DHT22;6128;59.340;18.040;2022-10-15T03:25:36;10.50;99.90
12130;DHT22;6128;59.340;18.040;2022-10-15T03:28:03;10.60;99.90
12130;DHT22;6128;59.340;18.040;2022-10-15T03:30:30;10.60;99.90
12130;DHT22;6128;59.340;18.040;2022-10-15T03:32:57;10.60;99.90
12130;DHT22;6128;59.340;18.040;2022-10-15T03:35:24;10.70;99.90
12130;DHT22;6128;59.340;18.040;2022-10-15T03:37:51;10.70;99.90
12130;DHT22;6128;59.340;18.040;2022-10-15T03:40:18;10.70;99.90
12130;DHT22;6128;59.340;18.040;2022-10-15T03:42:50;10.70;99.90
12130;DHT22;6128;59.340;18.040;2022-10-15T03:45:17;10.70;99.90
12130;DHT22;6128;59.340;18.040;2022-10-15T03:47:44;10.80;99.90
12130;DHT22;6128;59.340;18.040;2022-10-15T03:50:12;10.80;99.90
12130;DHT22;6128;59.340;18.040;2022-10-15T03:52:39;10.80;99.90
12130;DHT22;6128;59.340;18.040;2022-10-15T03:55:07;10.80;99.90
12130;DHT22;6128;59.340;18.040;2022-10-15T03:57:35;10.80;99.90
12130;DHT22;6128;59.340;18.040;2022-10-15T04:00:06;10.90;99.90
12130;DHT22;6128;59.340;18.040;2022-10-15T04:02:34;10.90;99.90
12130;DHT22;6128;59.340;18.040;2022-10-15T04:05:01;10.90;99.90
12130;DHT22;6128;59.340;18.040;2022-10-15T04:07:28;10.90;99.90
12130;DHT22;6128;59.340;18.040;2022-10-15T04:09:55;10.90;99.90
12130;DHT22;6128;59.340;18.040;2022-10-15T04:12:22;11.00;99.90
12130;DHT22;6128;59.340;18.040;2022-10-15T04:14:49;11.00;99.90
12130;DHT22;6128;59.340;18.040;2022-10-15T04:17:18;11.00;99.90
12130;DHT22;6128;59.340;18.040;2022-10-15T04:19:45;11.00;99.90
12130;DHT22;6128;59.340;18.040;2022-10-15T04:22:12;11.10;99.90
12130;DHT22;6128;59.340;18.040;2022-10-15T04:24:39;11.10;99.90
12130;DHT22;6128;59.340;18.040;2022-10-15T04:27:06;11.20;99.90
12130;DHT22;6128;59.340;18.040;2022-10-15T04:29:33;11.20;99.90
12130;DHT22;6128;59.340;18.040;2022-10-15T04:32:00;11.30;99.90
12130;DHT22;6128;59.340;18.040;2022-10-15T04:34:29;11.30;99.90
12130;DHT22;6128;59.340;18.040;2022-10-15T04:36:56;11.30;99.90
12130;DHT22;6128;59.340;18.040;2022-10-15T04:39:23;11.40;99.90
12130;DHT22;6128;59.340;18.040;2022-10-15T04:41:50;11.40;99.90
12130;DHT22;6128;59.340;18.040;2022-10-15T04:44:17;11.40;99.90
12130;DHT22;6128;59.340;18.040;2022-10-15T04:46:44;11.40;99.90
12130;DHT22;6128;59.340;18.040;2022-10-15T04:49:12;11.40;99.90
12130;DHT22;6128;59.340;18.040;2022-10-15T04:51:40;11.40;99.90
12130;DHT22;6128;59.340;18.040;2022-10-15T04:54:07;11.40;99.90
12130;DHT22;6128;59.340;18.040;2022-10-15T04:56:34;11.40;99.90
12130;DHT22;6128;59.340;18.040;2022-10-15T04:59:06;11.40;99.90
12130;DHT22;6128;59.340;18.040;2022-10-15T05:01:33;11.40;99.90
12130;DHT22;6128;59.340;18.040;2022-10-15T05:04:00;11.40;99.90
12130;DHT22;6128;59.340;18.040;2022-10-15T05:06:27;11.40;99.90
12130;DHT22;6128;59.340;18.040;2022-10-15T05:08:56;11.50;99.90
12130;DHT22;6128;59.340;18.040;2022-10-15T05:11:24;11.50;99.90
12130;DHT22;6128;59.340;18.040;2022-10-15T05:13:53;11.50;99.90
12130;DHT22;6128;59.340;18.040;2022-10-15T05:16:23;11.50;99.90
12130;DHT22;6128;59.340;18.040;2022-10-15T05:18:52;11.60;99.90
12130;DHT22;6128;59.340;18.040;2022-10-15T05:21:20;11.60;99.90
12130;DHT22;6128;59.340;18.040;2022-10-15T05:23:48;11.60;99.90
12130;DHT22;6128;59.340;18.040;2022-10-15T05:26:19;11.60;99.90
12130;DHT22;6128;59.340;18.040;2022-10-15T05:28:46;11.60;99.90
12130;DHT22;6128;59.340;18.040;2022-10-15T05:31:15;11.70;99.90
12130;DHT22;6128;59.340;18.040;2022-10-15T05:33:42;11.70;99.90
12130;DHT22;6128;59.340;18.040;2022-10-15T05:36:11;11.70;99.90
12130;DHT22;6128;59.340;18.040;2022-10-15T05:38:38;11.70;99.90
12130;DHT22;6128;59.340;18.040;2022-10-15T05:41:06;11.80;99.90
12130;DHT22;6128;59.340;18.040;2022-10-15T05:43:35;11.80;99.90
12130;DHT22;6128;59.340;18.040;2022-10-15T05:46:02;11.80;99.90
12130;DHT22;6128;59.340;18.040;2022-10-15T05:48:30;11.80;99.90
12130;DHT22;6128;59.340;18.040;2022-10-15T05:51:00;11.80;99.90
12130;DHT22;6128;59.340;18.040;2022-10-15T05:53:28;11.90;99.90
12130;DHT22;6128;59.340;18.040;2022-10-15T05:55:55;11.90;99.90
12130;DHT22;6128;59.340;18.040;2022-10-15T05:58:23;11.90;99.90
12130;DHT22;6128;59.340;18.040;2022-10-15T06:00:55;11.90;99.90
12130;DHT22;6128;59.340;18.040;2022-10-15T06:03:23;12.00;99.90
12130;DHT22;6128;59.340;18.040;2022-10-15T06:05:50;12.00;99.90
12130;DHT22;6128;59.340;18.040;2022-10-15T06:08:18;12.00;99.90
12130;DHT22;6128;59.340;18.040;2022-10-15T06:10:45;12.00;99.90
12130;DHT22;6128;59.340;18.040;2022-10-15T06:13:13;12.00;99.90
12130;DHT22;6128;59.340;18.040;2022-10-15T06:15:42;12.10;99.90
12130;DHT22;6128;59.340;18.040;2022-10-15T06:18:11;12.10;99.90
12130;DHT22;6128;59.340;18.040;2022-10-15T06:20:41;12.10;99.90
12130;DHT22;6128;59.340;18.040;2022-10-15T06:23:08;12.20;99.90
12130;DHT22;6128;59.340;18.040;2022-10-15T06:25:36;12.20;99.90
12130;DHT22;6128;59.340;18.040;2022-10-15T06:28:05;12.20;99.90
12130;DHT22;6128;59.340;18.040;2022-10-15T06:30:32;12.30;99.90
12130;DHT22;6128;59.340;18.040;2022-10-15T06:32:59;12.30;99.90
12130;DHT22;6128;59.340;18.040;2022-10-15T06:35:27;12.30;99.90
12130;DHT22;6128;59.340;18.040;2022-10-15T06:37:59;12.40;99.90
12130;DHT22;6128;59.340;18.040;2022-10-15T06:40:26;12.40;99.90
12130;DHT22;6128;59.340;18.040;2022-10-15T06:42:53;12.40;99.90
12130;DHT22;6128;59.340;18.040;2022-10-15T06:45:20;12.40;99.90
12130;DHT22;6128;59.340;18.040;2022-10-15T06:47:47;12.40;99.90
12130;DHT22;6128;59.340;18.040;2022-10-15T06:50:15;12.50;99.90
12130;DHT22;6128;59.340;18.040;2022-10-15T06:52:43;12.50;99.90
12130;DHT22;6128;59.340;18.040;2022-10-15T06:55:10;12.50;99.90
12130;DHT22;6128;59.340;18.040;2022-10-15T06:57:37;12.50;99.90
12130;DHT22;6128;59.340;18.040;2022-10-15T07:00:05;12.60;99.90
12130;DHT22;6128;59.340;18.040;2022-10-15T07:02:34;12.60;99.90
12130;DHT22;6128;59.340;18.040;2022-10-15T07:05:01;12.70;99.90
12130;DHT22;6128;59.340;18.040;2022-10-15T07:07:28;12.70;99.90
12130;DHT22;6128;59.340;18.040;2022-10-15T07:09:57;12.70;99.90
12130;DHT22;6128;59.340;18.040;2022-10-15T07:12:24;12.80;99.90
12130;DHT22;6128;59.340;18.040;2022-10-15T07:14:51;12.80;99.90
12130;DHT22;6128;59.340;18.040;2022-10-15T07:17:19;12.80;99.90
12130;DHT22;6128;59.340;18.040;2022-10-15T07:19:46;12.90;99.90
12130;DHT22;6128;59.340;18.040;2022-10-15T07:22:13;12.90;99.90
12130;DHT22;6128;59.340;18.040;2022-10-15T07:24:40;13.00;99.90
12130;DHT22;6128;59.340;18.040;2022-10-15T07:27:09;13.00;99.90
12130;DHT22;6128;59.340;18.040;2022-10-15T07:29:36;13.10;99.90
12130;DHT22;6128;59.340;18.040;2022-10-15T07:32:03;13.20;99.90
12130;DHT22;6128;59.340;18.040;2022-10-15T07:34:30;13.20;99.90
12130;DHT22;6128;59.340;18.040;2022-10-15T07:36:57;13.20;99.90
12130;DHT22;6128;59.340;18.040;2022-10-15T07:39:24;13.20;99.90
12130;DHT22;6128;59.340;18.040;2022-10-15T07:41:51;13.20;99.90
12130;DHT22;6128;59.340;18.040;2022-10-15T07:44:20;13.30;99.90
12130;DHT22;6128;59.340;18.040;2022-10-15T07:46:47;13.30;99.90
12130;DHT22;6128;59.340;18.040;2022-10-15T07:49:14;13.30;99.90
12130;DHT22;6128;59.340;18.040;2022-10-15T07:51:42;13.40;99.90
12130;DHT22;6128;59.340;18.040;2022-10-15T07:54:09;13.50;99.90
12130;DHT22;6128;59.340;18.040;2022-10-15T07:56:36;13.60;99.90
12130;DHT22;6128;59.340;18.040;2022-10-15T07:59:03;13.70;99.90
12130;DHT22;6128;59.340;18.040;2022-10-15T08:01:31;13.70;99.90
12130;DHT22;6128;59.340;18.040;2022-10-15T08:03:58;13.70;99.90
12130;DHT22;6128;59.340;18.040;2022-10-15T08:06:25;13.80;99.90
12130;DHT22;6128;59.340;18.040;2022-10-15T08:08:52;13.80;99.90
12130;DHT22;6128;59.340;18.040;2022-10-15T08:11:20;13.70;99.90
12130;DHT22;6128;59.340;18.040;2022-10-15T08:13:47;13.70;99.90
12130;DHT22;6128;59.340;18.040;2022-10-15T08:16:15;13.70;99.90
12130;DHT22;6128;59.340;18.040;2022-10-15T08:18:45;13.70;99.90
12130;DHT22;6128;59.340;18.040;2022-10-15T08:21:12;13.60;99.90
12130;DHT22;6128;59.340;18.040;2022-10-15T08:23:40;13.60;99.90
12130;DHT22;6128;59.340;18.040;2022-10-15T08:26:07;13.60;99.90
12130;DHT22;6128;59.340;18.040;2022-10-15T08:28:34;13.60;99.90
12130;DHT22;6128;59.340;18.040;2022-10-15T08:31:02;13.60;99.90
12130;DHT22;6128;59.340;18.040;2022-10-15T08:33:29;13.60;99.90
12130;DHT22;6128;59.340;18.040;2022-10-15T08:35:58;13.50;99.90
12130;DHT22;6128;59.340;18.040;2022-10-15T08:38:25;13.50;99.90
12130;DHT22;6128;59.340;18.040;2022-10-15T08:40:54;13.60;99.90
12130;DHT22;6128;59.340;18.040;2022-10-15T08:43:24;13.60;99.90
12130;DHT22;6128;59.340;18.040;2022-10-15T08:45:56;13.60;99.90
12130;DHT22;6128;59.340;18.040;2022-10-15T08:48:29;13.70;99.90
12130;DHT22;6128;59.340;18.040;2022-10-15T08:51:00;13.70;99.90
12130;DHT22;6128;59.340;18.040;2022-10-15T08:53:29;13.70;99.90
12130;DHT22;6128;59.340;18.040;2022-10-15T08:56:01;13.70;99.90
12130;DHT22;6128;59.340;18.040;2022-10-15T08:58:35;13.70;99.90
12130;DHT22;6128;59.340;18.040;2022-10-15T09:01:10;13.70;99.90
12130;DHT22;6128;59.340;18.040;2022-10-15T09:03:46;13.70;99.90
12130;DHT22;6128;59.340;18.040;2022-10-15T09:06:22;13.80;99.90
12130;DHT22;6128;59.340;18.040;2022-10-15T09:08:55;13.70;99.90
12130;DHT22;6128;59.340;18.040;2022-10-15T09:11:33;13.80;99.90
12130;DHT22;6128;59.340;18.040;2022-10-15T09:14:03;13.80;99.90
12130;DHT22;6128;59.340;18.040;2022-10-15T09:16:33;13.80;99.90
12130;DHT22;6128;59.340;18.040;2022-10-15T09:19:04;13.80;99.90
12130;DHT22;6128;59.340;18.040;2022-10-15T09:21:35;13.90;99.90
12130;DHT22;6128;59.340;18.040;2022-10-15T09:24:02;13.90;99.90
12130;DHT22;6128;59.340;18.040;2022-10-15T09:26:46;14.00;99.90
12130;DHT22;6128;59.340;18.040;2022-10-15T09:29:17;14.20;99.90
12130;DHT22;6128;59.340;18.040;2022-10-15T09:31:51;14.30;99.90
12130;DHT22;6128;59.340;18.040;2022-10-15T09:34:23;14.40;99.90
12130;DHT22;6128;59.340;18.040;2022-10-15T09:36:57;14.40;99.90
12130;DHT22;6128;59.340;18.040;2022-10-15T09:39:40;14.50;99.90
12130;DHT22;6128;59.340;18.040;2022-10-15T09:42:18;14.50;99.90
12130;DHT22;6128;59.340;18.040;2022-10-15T09:44:51;14.50;99.90
12130;DHT22;6128;59.340;18.040;2022-10-15T09:47:24;14.60;99.90
12130;DHT22;6128;59.340;18.040;2022-10-15T09:49:51;14.60;99.90
12130;DHT22;6128;59.340;18.040;2022-10-15T09:52:27;14.60;99.90
12130;DHT22;6128;59.340;18.040;2022-10-15T09:55:04;14.60;99.90
12130;DHT22;6128;59.340;18.040;2022-10-15T09:57:34;14.60;99.90
12130;DHT22;6128;59.340;18.040;2022-10-15T10:00:07;14.60;99.90
12130;DHT22;6128;59.340;18.040;2022-10-15T10:02:34;14.40;99.90
12130;DHT22;6128;59.340;18.040;2022-10-15T10:05:19;14.40;99.90
12130;DHT22;6128;59.340;18.040;2022-10-15T10:08:06;14.40;99.90
12130;DHT22;6128;59.340;18.040;2022-10-15T10:10:35;14.40;99.90
12130;DHT22;6128;59.340;18.040;2022-10-15T10:13:05;14.40;99.90
12130;DHT22;6128;59.340;18.040;2022-10-15T10:15:35;14.30;99.90
12130;DHT22;6128;59.340;18.040;2022-10-15T10:18:05;14.30;99.90
12130;DHT22;6128;59.340;18.040;2022-10-15T10:20:33;14.30;99.90
12130;DHT22;6128;59.340;18.040;2022-10-15T10:23:18;14.20;99.90
12130;DHT22;6128;59.340;18.040;2022-10-15T10:25:47;14.30;99.90
12130;DHT22;6128;59.340;18.040;2022-10-15T10:28:18;14.30;99.90
12130;DHT22;6128;59.340;18.040;2022-10-15T10:30:52;14.30;99.90
12130;DHT22;6128;59.340;18.040;2022-10-15T10:33:27;14.40;99.90
12130;DHT22;6128;59.340;18.040;2022-10-15T10:35:55;14.40;99.90
12130;DHT22;6128;59.340;18.040;2022-10-15T10:38:26;14.40;99.90
12130;DHT22;6128;59.340;18.040;2022-10-15T10:40:56;14.40;99.90
12130;DHT22;6128;59.340;18.040;2022-10-15T10:43:30;14.50;99.90
12130;DHT22;6128;59.340;18.040;2022-10-15T10:45:58;14.40;99.90
12130;DHT22;6128;59.340;18.040;2022-10-15T10:48:28;14.40;99.90
12130;DHT22;6128;59.340;18.040;2022-10-15T10:51:03;14.40;99.90
12130;DHT22;6128;59.340;18.040;2022-10-15T10:53:34;14.30;99.90
12130;DHT22;6128;59.340;18.040;2022-10-15T10:56:06;14.30;99.90
12130;DHT22;6128;59.340;18.040;2022-10-15T10:58:35;14.30;99.90
12130;DHT22;6128;59.340;18.040;2022-10-15T11:01:02;14.30;99.90
12130;DHT22;6128;59.340;18.040;2022-10-15T11:03:33;14.30;99.90
12130;DHT22;6128;59.340;18.040;2022-10-15T11:06:20;14.30;99.90
12130;DHT22;6128;59.340;18.040;2022-10-15T11:09:05;14.20;99.90
12130;DHT22;6128;59.340;18.040;2022-10-15T11:11:39;14.20;99.90
12130;DHT22;6128;59.340;18.040;2022-10-15T11:14:17;14.20;99.90
12130;DHT22;6128;59.340;18.040;2022-10-15T11:16:52;14.20;99.90
12130;DHT22;6128;59.340;18.040;2022-10-15T11:19:32;14.20;99.90
12130;DHT22;6128;59.340;18.040;2022-10-15T11:22:12;14.30;99.90
12130;DHT22;6128;59.340;18.040;2022-10-15T11:24:48;14.30;99.90
12130;DHT22;6128;59.340;18.040;2022-10-15T11:27:27;14.30;99.90
12130;DHT22;6128;59.340;18.040;2022-10-15T11:30:02;14.30;99.90
12130;DHT22;6128;59.340;18.040;2022-10-15T11:32:42;14.30;99.90
12130;DHT22;6128;59.340;18.040;2022-10-15T11:35:21;14.30;99.90
12130;DHT22;6128;59.340;18.040;2022-10-15T11:38:02;14.30;99.90
12130;DHT22;6128;59.340;18.040;2022-10-15T11:40:44;14.30;99.90
12130;DHT22;6128;59.340;18.040;2022-10-15T11:43:17;14.20;99.90
12130;DHT22;6128;59.340;18.040;2022-10-15T11:46:01;14.20;99.90
12130;DHT22;6128;59.340;18.040;2022-10-15T11:48:39;14.20;99.90
12130;DHT22;6128;59.340;18.040;2022-10-15T11:51:17;14.20;99.90
12130;DHT22;6128;59.340;18.040;2022-10-15T11:54:09;14.30;99.90
12130;DHT22;6128;59.340;18.040;2022-10-15T11:56:45;14.40;99.90
12130;DHT22;6128;59.340;18.040;2022-10-15T11:59:21;14.40;99.90
12130;DHT22;6128;59.340;18.040;2022-10-15T12:01:53;14.40;99.90
12130;DHT22;6128;59.340;18.040;2022-10-15T12:04:28;14.40;99.90
12130;DHT22;6128;59.340;18.040;2022-10-15T12:06:58;14.40;99.90
12130;DHT22;6128;59.340;18.040;2022-10-15T12:09:30;14.30;99.90
12130;DHT22;6128;59.340;18.040;2022-10-15T12:12:04;14.30;99.90
12130;DHT22;6128;59.340;18.040;2022-10-15T12:14:38;14.30;99.90
12130;DHT22;6128;59.340;18.040;2022-10-15T12:17:13;14.30;99.90
12130;DHT22;6128;59.340;18.040;2022-10-15T12:19:46;14.30;99.90
12130;DHT22;6128;59.340;18.040;2022-10-15T12:22:31;14.30;99.90
12130;DHT22;6128;59.340;18.040;2022-10-15T12:24:59;14.30;99.90
12130;DHT22;6128;59.340;18.040;2022-10-15T12:27:31;14.20;99.90
12130;DHT22;6128;59.340;18.040;2022-10-15T12:30:20;14.20;99.90
12130;DHT22;6128;59.340;18.040;2022-10-15T12:32:50;14.10;99.90
12130;DHT22;6128;59.340;18.040;2022-10-15T12:35:30;14.10;99.90
12130;DHT22;6128;59.340;18.040;2022-10-15T12:38:19;14.10;99.90
12130;DHT22;6128;59.340;18.040;2022-10-15T12:40:55;14.10;99.90
12130;DHT22;6128;59.340;18.040;2022-10-15T12:43:24;14.00;99.90
12130;DHT22;6128;59.340;18.040;2022-10-15T12:45:54;14.00;99.90
12130;DHT22;6128;59.340;18.040;2022-10-15T12:48:32;14.00;99.90
12130;DHT22;6128;59.340;18.040;2022-10-15T12:54:35;13.90;99.90
12130;DHT22;6128;59.340;18.040;2022-10-15T12:59:56;13.80;99.90
12130;DHT22;6128;59.340;18.040;2022-10-15T13:02:35;13.70;99.90
12130;DHT22;6128;59.340;18.040;2022-10-15T13:05:04;13.70;99.90
12130;DHT22;6128;59.340;18.040;2022-10-15T13:07:34;13.70;99.90
12130;DHT22;6128;59.340;18.040;2022-10-15T13:10:05;13.70;99.90
12130;DHT22;6128;59.340;18.040;2022-10-15T13:12:42;13.70;99.90
12130;DHT22;6128;59.340;18.040;2022-10-15T13:15:13;13.70;99.90
12130;DHT22;6128;59.340;18.040;2022-10-15T13:17:42;13.70;99.90
12130;DHT22;6128;59.340;18.040;2022-10-15T13:20:29;13.60;99.90
12130;DHT22;6128;59.340;18.040;2022-10-15T13:23:08;13.60;99.90
12130;DHT22;6128;59.340;18.040;2022-10-15T13:25:35;13.60;99.90
12130;DHT22;6128;59.340;18.040;2022-10-15T13:28:30;13.60;99.90
12130;DHT22;6128;59.340;18.040;2022-10-15T13:31:01;13.60;99.90
12130;DHT22;6128;59.340;18.040;2022-10-15T13:33:29;13.60;99.90
12130;DHT22;6128;59.340;18.040;2022-10-15T13:36:04;13.60;99.90
12130;DHT22;6128;59.340;18.040;2022-10-15T13:38:32;13.60;99.90
12130;DHT22;6128;59.340;18.040;2022-10-15T13:41:00;13.50;99.90
12130;DHT22;6128;59.340;18.040;2022-10-15T13:43:28;13.50;99.90
12130;DHT22;6128;59.340;18.040;2022-10-15T13:45:56;13.50;99.90
12130;DHT22;6128;59.340;18.040;2022-10-15T13:48:28;13.50;99.90
12130;DHT22;6128;59.340;18.040;2022-10-15T13:50:57;13.50;99.90
12130;DHT22;6128;59.340;18.040;2022-10-15T13:53:28;13.50;99.90
12130;DHT22;6128;59.340;18.040;2022-10-15T13:55:58;13.50;99.90
12130;DHT22;6128;59.340;18.040;2022-10-15T13:58:27;13.50;99.90
12130;DHT22;6128;59.340;18.040;2022-10-15T14:00:57;13.50;99.90
12130;DHT22;6128;59.340;18.040;2022-10-15T14:03:27;13.50;99.90
12130;DHT22;6128;59.340;18.040;2022-10-15T14:05:56;13.50;99.90
12130;DHT22;6128;59.340;18.040;2022-10-15T14:08:26;13.50;99.90
12130;DHT22;6128;59.340;18.040;2022-10-15T14:10:56;13.50;99.90
12130;DHT22;6128;59.340;18.040;2022-10-15T14:13:24;13.50;99.90
12130;DHT22;6128;59.340;18.040;2022-10-15T14:16:12;13.50;99.90
12130;DHT22;6128;59.340;18.040;2022-10-15T14:18:45;13.50;99.90
12130;DHT22;6128;59.340;18.040;2022-10-15T14:21:14;13.50;99.90
12130;DHT22;6128;59.340;18.040;2022-10-15T14:23:44;13.50;99.90
12130;DHT22;6128;59.340;18.040;2022-10-15T14:26:12;13.50;99.90
12130;DHT22;6128;59.340;18.040;2022-10-15T14:28:42;13.50;99.90
12130;DHT22;6128;59.340;18.040;2022-10-15T14:31:28;13.50;99.90
12130;DHT22;6128;59.340;18.040;2022-10-15T14:33:57;13.60;99.90
12130;DHT22;6128;59.340;18.040;2022-10-15T14:36:26;13.60;99.90
12130;DHT22;6128;59.340;18.040;2022-10-15T14:38:56;13.60;99.90
12130;DHT22;6128;59.340;18.040;2022-10-15T14:41:54;13.60;99.90
12130;DHT22;6128;59.340;18.040;2022-10-15T14:44:22;13.60;99.90
12130;DHT22;6128;59.340;18.040;2022-10-15T14:46:51;13.60;99.90
12130;DHT22;6128;59.340;18.040;2022-10-15T14:49:24;13.60;99.90
12130;DHT22;6128;59.340;18.040;2022-10-15T14:51:58;13.70;99.90
12130;DHT22;6128;59.340;18.040;2022-10-15T14:54:32;13.70;99.90
12130;DHT22;6128;59.340;18.040;2022-10-15T14:57:00;13.70;99.90
12130;DHT22;6128;59.340;18.040;2022-10-15T14:59:31;13.60;99.90
12130;DHT22;6128;59.340;18.040;2022-10-15T15:02:00;13.70;99.90
12130;DHT22;6128;59.340;18.040;2022-10-15T15:04:40;13.70;99.90
12130;DHT22;6128;59.340;18.040;2022-10-15T15:07:16;13.70;99.90
12130;DHT22;6128;59.340;18.040;2022-10-15T15:09:47;13.70;99.90
12130;DHT22;6128;59.340;18.040;2022-10-15T15:12:17;13.70;99.90
12130;DHT22;6128;59.340;18.040;2022-10-15T15:14:45;13.70;99.90
12130;DHT22;6128;59.340;18.040;2022-10-15T15:17:17;13.70;99.90
12130;DHT22;6128;59.340;18.040;2022-10-15T15:19:46;13.70;99.90
12130;DHT22;6128;59.340;18.040;2022-10-15T15:22:16;13.70;99.90
12130;DHT22;6128;59.340;18.040;2022-10-15T15:24:44;13.70;99.90
12130;DHT22;6128;59.340;18.040;2022-10-15T15:27:21;13.70;99.90
12130;DHT22;6128;59.340;18.040;2022-10-15T15:29:50;13.70;99.90
12130;DHT22;6128;59.340;18.040;2022-10-15T15:32:18;13.70;99.90
12130;DHT22;6128;59.340;18.040;2022-10-15T15:34:47;13.70;99.90
12130;DHT22;6128;59.340;18.040;2022-10-15T15:37:16;13.70;99.90
12130;DHT22;6128;59.340;18.040;2022-10-15T15:39:44;13.70;99.90
12130;DHT22;6128;59.340;18.040;2022-10-15T15:42:13;13.70;99.90
12130;DHT22;6128;59.340;18.040;2022-10-15T15:44:40;13.70;99.90
12130;DHT22;6128;59.340;18.040;2022-10-15T15:47:08;13.60;99.90
12130;DHT22;6128;59.340;18.040;2022-10-15T15:49:36;13.60;99.90
12130;DHT22;6128;59.340;18.040;2022-10-15T15:52:05;13.60;99.90
12130;DHT22;6128;59.340;18.040;2022-10-15T15:54:33;13.60;99.90
12130;DHT22;6128;59.340;18.040;2022-10-15T15:57:00;13.60;99.90
12130;DHT22;6128;59.340;18.040;2022-10-15T15:59:27;13.60;99.90
12130;DHT22;6128;59.340;18.040;2022-10-15T16:01:55;13.60;99.90
12130;DHT22;6128;59.340;18.040;2022-10-15T16:04:22;13.60;99.90